createdAt,value
2023-03-26T00:01:00.508Z,99932.84
2023-03-26T00:04:04.636Z,99936.16
2023-03-26T00:07:06.975Z,99935.69
2023-03-26T00:10:09.929Z,99931.44
2023-03-26T00:13:12.575Z,99927.59
2023-03-26T00:16:16.436Z,99923.63
2023-03-26T00:19:18.813Z,99925.37
2023-03-26T00:22:23.736Z,99927.09
2023-03-26T00:25:26.222Z,99927.22
2023-03-26T00:28:31.635Z,99925.59
2023-03-26T00:31:34.252Z,99929.19
2023-03-26T00:34:36.998Z,99930.00
2023-03-26T00:37:42.452Z,99922.28
2023-03-26T00:40:47.996Z,99930.28
2023-03-26T00:43:51.469Z,99931.50
2023-03-26T00:46:54.234Z,99930.38
2023-03-26T00:49:57.553Z,99923.75
2023-03-26T00:53:00.223Z,99921.88
2023-03-26T00:56:03.123Z,99914.09
2023-03-26T00:59:05.977Z,99916.84
2023-03-26T01:02:11.546Z,99910.00
2023-03-26T01:05:33.914Z,99910.09
2023-03-26T01:08:45.006Z,99910.37
2023-03-26T01:11:48.816Z,99906.25
2023-03-26T01:14:52.310Z,99892.63
2023-03-26T01:17:57.880Z,99902.84
2023-03-26T01:21:05.291Z,99898.16
2023-03-26T01:24:09.231Z,99904.19
2023-03-26T01:27:32.306Z,99898.28
2023-03-26T01:30:42.302Z,99901.66
2023-03-26T01:34:03.388Z,99910.63
2023-03-26T01:37:27.231Z,99903.81
2023-03-26T01:40:42.861Z,99910.16
2023-03-26T01:43:50.277Z,99915.16
2023-03-26T01:46:53.530Z,99914.81
2023-03-26T01:49:56.372Z,99917.47
2023-03-26T01:52:59.569Z,99915.97
2023-03-26T01:56:21.112Z,99912.25
2023-03-26T01:59:42.137Z,99913.25
2023-03-26T02:02:44.976Z,99914.31
2023-03-26T02:05:57.946Z,99920.81
2023-03-26T02:09:06.038Z,99936.62
2023-03-26T02:12:09.662Z,99940.09
2023-03-26T02:15:12.822Z,99940.97
2023-03-26T02:18:15.481Z,99937.69
2023-03-26T02:21:20.441Z,99943.16
2023-03-26T02:24:22.993Z,99939.03
2023-03-26T02:27:28.232Z,99942.41
2023-03-26T02:30:33.645Z,99939.25
2023-03-26T02:33:36.995Z,99939.47
2023-03-26T02:36:39.525Z,99939.72
2023-03-26T02:39:42.408Z,99929.47
2023-03-26T02:42:45.700Z,99926.22
2023-03-26T02:45:49.158Z,99929.91
2023-03-26T02:48:54.699Z,99919.78
2023-03-26T02:51:58.208Z,99919.13
2023-03-26T02:55:00.692Z,99909.72
2023-03-26T02:58:03.554Z,99906.38
2023-03-26T03:01:06.604Z,99901.09
2023-03-26T03:04:10.575Z,99909.84
2023-03-26T03:07:17.955Z,99909.72
2023-03-26T03:10:21.954Z,99919.78
2023-03-26T03:13:26.686Z,99914.63
2023-03-26T03:16:29.528Z,99912.16
2023-03-26T03:19:32.465Z,99913.72
2023-03-26T03:22:36.188Z,99913.56
2023-03-26T03:25:41.123Z,99913.28
2023-03-26T03:28:45.278Z,99926.16
2023-03-26T03:31:49.227Z,99920.13
2023-03-26T03:34:53.094Z,99910.81
2023-03-26T03:37:56.777Z,99916.63
2023-03-26T03:41:00.622Z,99909.56
2023-03-26T03:44:03.216Z,99910.53
2023-03-26T03:47:07.293Z,99901.87
2023-03-26T03:50:10.719Z,99918.56
2023-03-26T03:53:16.012Z,99927.25
2023-03-26T03:56:19.610Z,99930.34
2023-03-26T03:59:23.629Z,99932.13
2023-03-26T04:02:30.294Z,99920.03
2023-03-26T04:05:33.441Z,99924.78
2023-03-26T04:08:36.381Z,99920.66
2023-03-26T04:11:40.473Z,99928.84
2023-03-26T04:14:43.375Z,99929.94
2023-03-26T04:17:46.213Z,99940.31
2023-03-26T04:20:49.866Z,99946.38
2023-03-26T04:23:54.319Z,99938.78
2023-03-26T04:26:58.394Z,99935.53
2023-03-26T04:30:01.945Z,99934.56
2023-03-26T04:33:06.728Z,99935.34
2023-03-26T04:36:10.200Z,99931.13
2023-03-26T04:39:13.397Z,99931.13
2023-03-26T04:42:22.350Z,99927.88
2023-03-26T04:45:26.426Z,99933.00
2023-03-26T04:48:30.464Z,99935.69
2023-03-26T04:51:38.420Z,99943.03
2023-03-26T04:54:46.149Z,99944.03
2023-03-26T04:57:50.762Z,99939.78
2023-03-26T05:00:55.223Z,99943.22
2023-03-26T05:04:00.443Z,99938.88
2023-03-26T05:07:03.518Z,99942.69
2023-03-26T05:10:06.786Z,99934.06
2023-03-26T05:13:10.325Z,99935.22
2023-03-26T05:16:14.478Z,99934.38
2023-03-26T05:19:17.545Z,99927.44
2023-03-26T05:22:20.180Z,99938.66
2023-03-26T05:25:27.416Z,99935.94
2023-03-26T05:28:30.164Z,99938.63
2023-03-26T05:31:33.624Z,99932.09
2023-03-26T05:34:38.280Z,99935.53
2023-03-26T05:37:41.093Z,99922.72
2023-03-26T05:40:43.933Z,99930.72
2023-03-26T05:43:48.986Z,99927.44
2023-03-26T05:46:51.886Z,99932.00
2023-03-26T05:49:55.311Z,99934.66
2023-03-26T05:52:58.051Z,99935.53
2023-03-26T05:56:02.105Z,99935.19
2023-03-26T05:59:09.737Z,99939.25
2023-03-26T06:02:13.747Z,99944.62
2023-03-26T06:05:17.433Z,99933.59
2023-03-26T06:08:21.947Z,99934.84
2023-03-26T06:11:24.691Z,99931.16
2023-03-26T06:14:27.179Z,99932.50
2023-03-26T06:17:33.054Z,99933.06
2023-03-26T06:20:42.234Z,99919.59
2023-03-26T06:23:45.276Z,99922.03
2023-03-26T06:26:47.932Z,99924.19
2023-03-26T06:29:52.050Z,99922.09
2023-03-26T06:32:54.593Z,99921.69
2023-03-26T06:35:57.794Z,99922.13
2023-03-26T06:39:00.216Z,99922.19
2023-03-26T06:42:11.566Z,99925.69
2023-03-26T06:45:14.259Z,99928.19
2023-03-26T06:48:21.185Z,99916.41
2023-03-26T06:51:24.136Z,99918.84
2023-03-26T06:54:28.091Z,99926.53
2023-03-26T06:57:31.133Z,99922.97
2023-03-26T07:00:35.855Z,99922.75
2023-03-26T07:03:40.537Z,99921.31
2023-03-26T07:06:50.815Z,99917.94
2023-03-26T07:10:03.846Z,99915.47
2023-03-26T07:13:09.374Z,99914.44
2023-03-26T07:16:14.167Z,99907.16
2023-03-26T07:19:18.291Z,99909.41
2023-03-26T07:22:22.480Z,99906.53
2023-03-26T07:25:28.526Z,99895.97
2023-03-26T07:28:41.927Z,99903.31
2023-03-26T07:32:00.044Z,99902.91
2023-03-26T07:35:03.398Z,99900.50
2023-03-26T07:38:12.038Z,99913.94
2023-03-26T07:41:14.789Z,99919.75
2023-03-26T07:44:35.817Z,99917.66
2023-03-26T07:47:42.384Z,99906.56
2023-03-26T07:50:48.242Z,99906.81
2023-03-26T07:53:52.674Z,99912.31
2023-03-26T07:56:59.164Z,99903.81
2023-03-26T08:00:17.709Z,99905.12
2023-03-26T08:03:31.803Z,99907.47
2023-03-26T08:06:38.410Z,99902.22
2023-03-26T08:09:54.281Z,99903.03
2023-03-26T08:12:57.750Z,99913.88
2023-03-26T08:16:00.568Z,99914.66
2023-03-26T08:19:03.606Z,99916.87
2023-03-26T08:22:13.745Z,99915.56
2023-03-26T08:25:33.406Z,99918.94
2023-03-26T08:28:48.706Z,99907.72
2023-03-26T08:31:51.950Z,99908.91
2023-03-26T08:34:54.452Z,99906.19
2023-03-26T08:37:57.156Z,99907.84
2023-03-26T08:41:02.913Z,99902.53
2023-03-26T08:44:20.850Z,99906.81
2023-03-26T08:47:38.641Z,99913.59
2023-03-26T08:51:03.604Z,99902.69
2023-03-26T08:54:30.155Z,99902.31
2023-03-26T08:57:56.091Z,99897.41
2023-03-26T09:01:17.418Z,99884.63
2023-03-26T09:04:20.361Z,99881.63
2023-03-26T09:07:33.495Z,99878.63
2023-03-26T09:10:56.674Z,99886.13
2023-03-26T09:14:17.715Z,99883.66
2023-03-26T09:17:58.736Z,99891.19
2023-03-26T09:21:01.295Z,99879.37
2023-03-26T09:24:04.044Z,99879.03
2023-03-26T09:27:08.600Z,99870.50
2023-03-26T09:30:23.873Z,99867.75
2023-03-26T09:33:41.245Z,99871.75
2023-03-26T09:36:54.882Z,99872.97
2023-03-26T09:39:57.239Z,99864.06
2023-03-26T09:43:02.976Z,99864.00
2023-03-26T09:46:24.148Z,99862.16
2023-03-26T09:49:49.091Z,99856.66
2023-03-26T09:52:57.419Z,99848.25
2023-03-26T09:56:11.786Z,99859.19
2023-03-26T09:59:33.159Z,99851.75
2023-03-26T10:02:45.551Z,99840.75
2023-03-26T10:05:52.375Z,99832.63
2023-03-26T10:09:03.852Z,99820.31
2023-03-26T10:12:20.728Z,99812.50
2023-03-26T10:15:25.995Z,99807.97
2023-03-26T10:18:37.764Z,99797.88
2023-03-26T10:21:45.938Z,99795.13
2023-03-26T10:24:57.398Z,99802.66
2023-03-26T10:28:06.035Z,99795.66
2023-03-26T10:31:27.980Z,99791.00
2023-03-26T10:35:06.003Z,99791.53
2023-03-26T10:38:23.699Z,99784.19
2023-03-26T10:41:38.249Z,99790.03
2023-03-26T10:44:44.955Z,99785.19
2023-03-26T10:48:06.081Z,99783.91
2023-03-26T10:51:28.365Z,99772.56
2023-03-26T10:54:31.287Z,99768.12
2023-03-26T10:57:40.008Z,99773.75
2023-03-26T11:01:00.924Z,99778.72
2023-03-26T11:04:16.662Z,99765.28
2023-03-26T11:07:29.290Z,99758.88
2023-03-26T11:10:31.949Z,99749.03
2023-03-26T11:13:34.275Z,99741.09
2023-03-26T11:16:47.179Z,99731.34
2023-03-26T11:19:55.549Z,99729.59
2023-03-26T11:23:04.247Z,99732.44
2023-03-26T11:26:16.210Z,99724.47
2023-03-26T11:29:31.619Z,99712.34
2023-03-26T11:32:44.987Z,99704.34
2023-03-26T11:35:49.903Z,99700.34
2023-03-26T11:38:55.892Z,99692.69
2023-03-26T11:42:11.372Z,99691.22
2023-03-26T11:45:24.150Z,99674.94
2023-03-26T11:48:46.772Z,99666.56
2023-03-26T11:51:49.216Z,99669.25
2023-03-26T11:54:51.794Z,99662.53
2023-03-26T11:57:55.468Z,99653.00
2023-03-26T12:00:59.104Z,99648.69
2023-03-26T12:04:24.823Z,99646.91
2023-03-26T12:07:34.154Z,99631.75
2023-03-26T12:10:38.804Z,99617.69
2023-03-26T12:13:44.722Z,99608.47
2023-03-26T12:17:01.648Z,99601.88
2023-03-26T12:20:22.792Z,99594.81
2023-03-26T12:23:52.499Z,99596.16
2023-03-26T12:27:02.286Z,99581.03
2023-03-26T12:30:19.791Z,99570.62
2023-03-26T12:33:27.934Z,99567.94
2023-03-26T12:36:33.258Z,99564.75
2023-03-26T12:40:06.775Z,99554.31
2023-03-26T12:44:54.391Z,99549.84
2023-03-26T12:47:57.926Z,99547.84
2023-03-26T12:49:55.227Z,99534.69
2023-03-26T12:53:07.259Z,99537.22
2023-03-26T12:56:22.022Z,99522.63
2023-03-26T12:59:30.226Z,99527.94
2023-03-26T13:02:33.470Z,99524.22
2023-03-26T13:05:36.499Z,99510.75
2023-03-26T13:08:46.556Z,99506.72
2023-03-26T13:12:09.407Z,99497.53
2023-03-26T13:15:15.290Z,99502.06
2023-03-26T13:18:18.185Z,99498.59
2023-03-26T13:21:28.628Z,99478.56
2023-03-26T13:24:38.142Z,99482.66
2023-03-26T13:27:44.235Z,99465.06
2023-03-26T13:30:51.274Z,99467.84
2023-03-26T13:34:07.262Z,99457.69
2023-03-26T13:37:22.985Z,99463.72
2023-03-26T13:40:42.469Z,99454.72
2023-03-26T13:43:51.712Z,99446.69
2023-03-26T13:47:14.600Z,99452.81
2023-03-26T13:50:17.252Z,99451.47
2023-03-26T13:53:25.802Z,99441.56
2023-03-26T13:56:31.616Z,99434.84
2023-03-26T13:59:34.416Z,99433.97
2023-03-26T14:02:41.786Z,99415.28
2023-03-26T14:05:47.198Z,99417.34
2023-03-26T14:09:04.988Z,99408.09
2023-03-26T14:12:21.418Z,99402.53
2023-03-26T14:15:47.370Z,99400.78
2023-03-26T14:19:08.962Z,99398.91
2023-03-26T14:22:20.621Z,99397.72
2023-03-26T14:25:41.861Z,99400.88
2023-03-26T14:29:03.274Z,99382.94
2023-03-26T14:32:26.131Z,99381.59
2023-03-26T14:35:28.556Z,99379.56
2023-03-26T14:38:40.665Z,99378.50
2023-03-26T14:41:51.648Z,99366.56
2023-03-26T14:44:54.250Z,99358.94
2023-03-26T14:48:16.884Z,99359.31
2023-03-26T14:51:19.896Z,99357.44
2023-03-26T14:54:27.938Z,99354.84
2023-03-26T14:57:45.948Z,99349.09
2023-03-26T15:01:03.911Z,99339.84
2023-03-26T15:04:38.355Z,99324.91
2023-03-26T15:08:10.181Z,99329.25
2023-03-26T15:11:31.574Z,99319.78
2023-03-26T15:14:41.738Z,99312.97
2023-03-26T15:17:50.471Z,99317.94
2023-03-26T15:21:05.232Z,99319.34
2023-03-26T15:24:26.878Z,99313.81
2023-03-26T15:27:29.340Z,99300.53
2023-03-26T15:30:35.070Z,99299.69
2023-03-26T15:33:40.442Z,99293.50
2023-03-26T15:36:44.694Z,99293.63
2023-03-26T15:40:07.979Z,99282.91
2023-03-26T15:43:14.964Z,99288.66
2023-03-26T15:46:31.332Z,99276.50
2023-03-26T15:49:37.174Z,99281.88
2023-03-26T15:52:48.527Z,99268.97
2023-03-26T15:56:09.734Z,99270.75
2023-03-26T15:59:19.553Z,99261.53
2023-03-26T16:02:44.019Z,99264.63
2023-03-26T16:05:56.359Z,99259.59
2023-03-26T16:09:22.031Z,99243.84
2023-03-26T16:12:31.860Z,99245.81
2023-03-26T16:15:35.195Z,99230.72
2023-03-26T16:18:40.981Z,99219.97
2023-03-26T16:21:46.391Z,99214.16
2023-03-26T16:25:26.903Z,99205.53
2023-03-26T16:28:33.871Z,99206.50
2023-03-26T16:31:39.211Z,99201.31
2023-03-26T16:35:02.013Z,99198.63
2023-03-26T16:38:06.056Z,99193.53
2023-03-26T16:41:34.755Z,99200.81
2023-03-26T16:44:51.804Z,99204.69
2023-03-26T16:48:02.979Z,99199.25
2023-03-26T16:51:16.955Z,99214.97
2023-03-26T16:54:34.584Z,99208.69
2023-03-26T16:57:43.715Z,99210.19
2023-03-26T17:00:52.438Z,99205.69
2023-03-26T17:03:58.888Z,99209.84
2023-03-26T17:07:20.057Z,99201.00
2023-03-26T17:10:36.477Z,99200.94
2023-03-26T17:13:51.586Z,99202.41
2023-03-26T17:17:32.994Z,99204.06
2023-03-26T17:20:40.015Z,99211.66
2023-03-26T17:23:59.535Z,99213.34
2023-03-26T17:27:17.686Z,99212.72
2023-03-26T17:30:23.499Z,99214.34
2023-03-26T17:33:27.890Z,99207.34
2023-03-26T17:36:39.823Z,99212.88
2023-03-26T17:39:48.204Z,99202.63
2023-03-26T17:43:00.793Z,99208.69
2023-03-26T17:46:04.561Z,99199.28
2023-03-26T17:49:17.026Z,99202.81
2023-03-26T17:52:25.241Z,99207.50
2023-03-26T17:55:31.170Z,99202.75
2023-03-26T17:58:42.665Z,99207.75
2023-03-26T18:01:47.589Z,99205.28
2023-03-26T18:04:52.855Z,99198.97
2023-03-26T18:08:04.080Z,99211.84
2023-03-26T18:11:26.367Z,99206.47
2023-03-26T18:14:51.750Z,99199.88
2023-03-26T18:18:23.758Z,99203.22
2023-03-26T18:21:35.061Z,99200.94
2023-03-26T18:24:38.727Z,99195.31
2023-03-26T18:27:41.153Z,99191.69
2023-03-26T18:30:48.016Z,99193.34
2023-03-26T18:33:54.317Z,99195.44
2023-03-26T18:37:02.655Z,99185.41
2023-03-26T18:40:12.461Z,99187.41
2023-03-26T18:43:34.146Z,99174.34
2023-03-26T18:46:37.300Z,99175.50
2023-03-26T18:49:41.826Z,99173.06
2023-03-26T18:52:44.450Z,99165.84
2023-03-26T18:55:48.116Z,99169.00
2023-03-26T18:58:51.357Z,99155.59
2023-03-26T19:01:57.722Z,99157.16
2023-03-26T19:05:03.604Z,99144.28
2023-03-26T19:08:06.718Z,99139.87
2023-03-26T19:11:10.759Z,99132.56
2023-03-26T19:14:17.004Z,99131.06
2023-03-26T19:17:19.549Z,99125.84
2023-03-26T19:20:26.165Z,99124.66
2023-03-26T19:23:38.961Z,99113.06
2023-03-26T19:26:42.480Z,99117.53
2023-03-26T19:29:44.953Z,99110.75
2023-03-26T19:32:55.016Z,99110.38
2023-03-26T19:36:14.621Z,99107.47
2023-03-26T19:39:24.371Z,99099.94
2023-03-26T19:42:42.983Z,99095.81
2023-03-26T19:46:00.210Z,99089.69
2023-03-26T19:49:04.195Z,99083.38
2023-03-26T19:52:17.564Z,99071.31
2023-03-26T19:55:24.249Z,99070.53
2023-03-26T19:58:27.148Z,99063.66
2023-03-26T20:01:30.458Z,99050.25
2023-03-26T20:04:33.114Z,99047.09
2023-03-26T20:07:39.295Z,99040.06
2023-03-26T20:10:43.079Z,99031.50
2023-03-26T20:13:46.350Z,99023.66
2023-03-26T20:16:49.364Z,99018.69
2023-03-26T20:19:52.473Z,99013.44
2023-03-26T20:22:55.233Z,99001.94
2023-03-26T20:25:57.788Z,99007.88
2023-03-26T20:29:00.676Z,99001.69
2023-03-26T20:32:06.422Z,98992.47
2023-03-26T20:35:16.518Z,98987.47
2023-03-26T20:38:21.695Z,98980.56
2023-03-26T20:41:24.606Z,98983.75
2023-03-26T20:44:27.330Z,98971.75
2023-03-26T20:47:29.885Z,98969.09
2023-03-26T20:50:35.806Z,98962.59
2023-03-26T20:53:38.929Z,98961.75
2023-03-26T20:56:41.644Z,98957.97
2023-03-26T20:59:45.706Z,98958.81
2023-03-26T21:02:53.463Z,98945.44
2023-03-26T21:05:59.158Z,98943.69
2023-03-26T21:09:01.563Z,98948.81
2023-03-26T21:12:07.822Z,98934.31
2023-03-26T21:15:22.448Z,98936.63
2023-03-26T21:18:26.605Z,98928.69
2023-03-26T21:21:39.621Z,98928.59
2023-03-26T21:24:45.679Z,98937.38
2023-03-26T21:27:54.140Z,98963.44
2023-03-26T21:30:58.074Z,98994.28
2023-03-26T21:34:00.724Z,98988.16
2023-03-26T21:37:03.580Z,98992.41
2023-03-26T21:40:16.969Z,98988.94
2023-03-26T21:43:20.668Z,98980.94
2023-03-26T21:46:23.128Z,98978.06
2023-03-26T21:49:26.450Z,98985.88
2023-03-26T21:52:30.227Z,98986.41
2023-03-26T21:55:38.710Z,98992.81
2023-03-26T21:58:56.105Z,98991.50
2023-03-26T22:01:58.960Z,98987.25
2023-03-26T22:05:04.070Z,98985.06
2023-03-26T22:08:08.131Z,98985.06
2023-03-26T22:11:11.455Z,98980.63
2023-03-26T22:14:14.397Z,98982.81
2023-03-26T22:17:17.058Z,98988.37
2023-03-26T22:20:22.264Z,98976.12
2023-03-26T22:23:34.368Z,98958.47
2023-03-26T22:26:37.562Z,98957.72
2023-03-26T22:29:40.289Z,98953.47
2023-03-26T22:32:43.538Z,98941.41
2023-03-26T22:35:47.042Z,98941.13
2023-03-26T22:38:52.963Z,98939.59
2023-03-26T22:41:55.865Z,98953.97
2023-03-26T22:44:58.241Z,98943.63
2023-03-26T22:48:04.473Z,98952.88
2023-03-26T22:51:09.096Z,98943.53
2023-03-26T22:54:11.723Z,98934.72
2023-03-26T22:57:14.160Z,98928.03
2023-03-26T23:00:19.811Z,98924.03
2023-03-26T23:03:35.117Z,98912.00
2023-03-26T23:06:38.281Z,98914.84
2023-03-26T23:09:40.844Z,98910.22
2023-03-26T23:12:43.565Z,98908.44
2023-03-26T23:15:47.838Z,98896.63
2023-03-26T23:18:50.652Z,98901.19
2023-03-26T23:21:52.942Z,98907.56
2023-03-26T23:24:55.898Z,98894.00
2023-03-26T23:27:58.494Z,98886.50
2023-03-26T23:31:02.541Z,98887.13
2023-03-26T23:34:05.020Z,98873.75
2023-03-26T23:37:10.932Z,98875.53
2023-03-26T23:40:13.859Z,98870.53
2023-03-26T23:43:17.455Z,98868.31
2023-03-26T23:46:22.173Z,98866.56
2023-03-26T23:49:25.487Z,98858.84
2023-03-26T23:52:28.683Z,98851.00
2023-03-26T23:55:31.373Z,98849.31
2023-03-26T23:58:33.897Z,98837.94
